sensor_id;sensor_type;location;lat;lon;timestamp;P1;durP1;ratioP1;P2;durP2;ratioP2
48987;SDS011;34799;51.440;-2.534;2022-10-31T00:01:28;11.40;;;1.33;;
48987;SDS011;34799;51.440;-2.534;2022-10-31T00:03:58;17.23;;;2.30;;
48987;SDS011;34799;51.440;-2.534;2022-10-31T00:06:26;17.65;;;1.33;;
48987;SDS011;34799;51.440;-2.534;2022-10-31T00:08:55;16.23;;;1.00;;
48987;SDS011;34799;51.440;-2.534;2022-10-31T00:11:24;17.73;;;2.00;;
48987;SDS011;34799;51.440;-2.534;2022-10-31T00:13:51;27.92;;;2.60;;
48987;SDS011;34799;51.440;-2.534;2022-10-31T00:16:20;15.18;;;1.70;;
48987;SDS011;34799;51.440;-2.534;2022-10-31T00:18:48;14.10;;;1.67;;
48987;SDS011;34799;51.440;-2.534;2022-10-31T00:21:17;18.98;;;1.63;;
48987;SDS011;34799;51.440;-2.534;2022-10-31T00:23:44;24.40;;;2.33;;
48987;SDS011;34799;51.440;-2.534;2022-10-31T00:26:12;11.68;;;1.02;;
48987;SDS011;34799;51.440;-2.534;2022-10-31T00:28:39;17.90;;;1.38;;
48987;SDS011;34799;51.440;-2.534;2022-10-31T00:31:09;19.13;;;1.90;;
48987;SDS011;34799;51.440;-2.534;2022-10-31T00:33:38;12.23;;;1.45;;
48987;SDS011;34799;51.440;-2.534;2022-10-31T00:36:06;24.45;;;1.73;;
48987;SDS011;34799;51.440;-2.534;2022-10-31T00:38:35;13.63;;;1.42;;
48987;SDS011;34799;51.440;-2.534;2022-10-31T00:41:03;18.52;;;2.03;;
48987;SDS011;34799;51.440;-2.534;2022-10-31T00:43:30;14.57;;;1.85;;
48987;SDS011;34799;51.440;-2.534;2022-10-31T00:45:58;16.60;;;1.52;;
48987;SDS011;34799;51.440;-2.534;2022-10-31T00:48:26;17.17;;;1.63;;
48987;SDS011;34799;51.440;-2.534;2022-10-31T00:50:54;12.48;;;1.75;;
48987;SDS011;34799;51.440;-2.534;2022-10-31T00:53:22;14.02;;;1.50;;
48987;SDS011;34799;51.440;-2.534;2022-10-31T00:55:49;17.55;;;1.50;;
48987;SDS011;34799;51.440;-2.534;2022-10-31T00:58:18;19.23;;;1.92;;
48987;SDS011;34799;51.440;-2.534;2022-10-31T01:00:49;14.48;;;1.30;;
48987;SDS011;34799;51.440;-2.534;2022-10-31T01:03:22;11.63;;;1.05;;
48987;SDS011;34799;51.440;-2.534;2022-10-31T01:06:00;14.63;;;1.92;;
48987;SDS011;34799;51.440;-2.534;2022-10-31T01:08:32;16.10;;;1.65;;
48987;SDS011;34799;51.440;-2.534;2022-10-31T01:11:01;17.38;;;1.73;;
48987;SDS011;34799;51.440;-2.534;2022-10-31T01:13:34;11.25;;;1.05;;
48987;SDS011;34799;51.440;-2.534;2022-10-31T01:16:02;22.35;;;2.85;;
48987;SDS011;34799;51.440;-2.534;2022-10-31T01:18:32;13.10;;;1.27;;
48987;SDS011;34799;51.440;-2.534;2022-10-31T01:21:01;10.60;;;1.15;;
48987;SDS011;34799;51.440;-2.534;2022-10-31T01:23:30;16.25;;;1.17;;
48987;SDS011;34799;51.440;-2.534;2022-10-31T01:26:02;13.30;;;1.20;;
48987;SDS011;34799;51.440;-2.534;2022-10-31T01:28:32;16.02;;;1.00;;
48987;SDS011;34799;51.440;-2.534;2022-10-31T01:31:00;18.85;;;2.60;;
48987;SDS011;34799;51.440;-2.534;2022-10-31T01:33:28;11.13;;;1.42;;
48987;SDS011;34799;51.440;-2.534;2022-10-31T01:35:55;13.77;;;1.48;;
48987;SDS011;34799;51.440;-2.534;2022-10-31T01:38:24;15.00;;;1.20;;
48987;SDS011;34799;51.440;-2.534;2022-10-31T01:40:52;16.10;;;1.63;;
48987;SDS011;34799;51.440;-2.534;2022-10-31T01:43:19;12.13;;;1.40;;
48987;SDS011;34799;51.440;-2.534;2022-10-31T01:45:52;15.93;;;2.25;;
48987;SDS011;34799;51.440;-2.534;2022-10-31T01:48:22;18.02;;;1.20;;
48987;SDS011;34799;51.440;-2.534;2022-10-31T01:50:52;11.40;;;0.75;;
48987;SDS011;34799;51.440;-2.534;2022-10-31T01:53:21;9.85;;;0.77;;
48987;SDS011;34799;51.440;-2.534;2022-10-31T01:55:51;9.23;;;1.55;;
48987;SDS011;34799;51.440;-2.534;2022-10-31T01:58:21;11.82;;;0.70;;
48987;SDS011;34799;51.440;-2.534;2022-10-31T02:00:51;14.85;;;1.35;;
48987;SDS011;34799;51.440;-2.534;2022-10-31T02:03:22;21.23;;;1.65;;
48987;SDS011;34799;51.440;-2.534;2022-10-31T02:05:50;10.38;;;0.80;;
48987;SDS011;34799;51.440;-2.534;2022-10-31T02:08:28;15.90;;;1.88;;
48987;SDS011;34799;51.440;-2.534;2022-10-31T02:10:56;14.20;;;0.90;;
48987;SDS011;34799;51.440;-2.534;2022-10-31T02:13:24;8.85;;;0.90;;
48987;SDS011;34799;51.440;-2.534;2022-10-31T02:15:57;13.82;;;1.00;;
48987;SDS011;34799;51.440;-2.534;2022-10-31T02:18:27;12.30;;;0.98;;
48987;SDS011;34799;51.440;-2.534;2022-10-31T02:29:22;10.82;;;1.42;;
48987;SDS011;34799;51.440;-2.534;2022-10-31T02:34:21;9.50;;;0.77;;
48987;SDS011;34799;51.440;-2.534;2022-10-31T02:36:56;8.70;;;0.77;;
48987;SDS011;34799;51.440;-2.534;2022-10-31T02:39:42;15.07;;;0.85;;
48987;SDS011;34799;51.440;-2.534;2022-10-31T02:42:23;12.45;;;1.17;;
48987;SDS011;34799;51.440;-2.534;2022-10-31T02:44:58;14.68;;;0.95;;
48987;SDS011;34799;51.440;-2.534;2022-10-31T02:47:32;7.68;;;0.98;;
48987;SDS011;34799;51.440;-2.534;2022-10-31T02:50:06;13.95;;;1.88;;
48987;SDS011;34799;51.440;-2.534;2022-10-31T02:52:34;15.82;;;0.80;;
48987;SDS011;34799;51.440;-2.534;2022-10-31T02:57:54;11.45;;;1.05;;
48987;SDS011;34799;51.440;-2.534;2022-10-31T03:00:22;11.13;;;0.63;;
48987;SDS011;34799;51.440;-2.534;2022-10-31T03:10:51;11.45;;;1.25;;
48987;SDS011;34799;51.440;-2.534;2022-10-31T03:13:26;16.48;;;0.98;;
48987;SDS011;34799;51.440;-2.534;2022-10-31T03:18:47;12.43;;;0.90;;
48987;SDS011;34799;51.440;-2.534;2022-10-31T03:21:20;19.75;;;1.55;;
48987;SDS011;34799;51.440;-2.534;2022-10-31T03:23:52;13.90;;;0.95;;
48987;SDS011;34799;51.440;-2.534;2022-10-31T03:26:22;13.80;;;0.90;;
48987;SDS011;34799;51.440;-2.534;2022-10-31T03:28:52;13.45;;;1.30;;
48987;SDS011;34799;51.440;-2.534;2022-10-31T03:31:26;20.25;;;1.30;;
48987;SDS011;34799;51.440;-2.534;2022-10-31T03:33:58;10.43;;;1.33;;
48987;SDS011;34799;51.440;-2.534;2022-10-31T03:36:29;12.15;;;1.25;;
48987;SDS011;34799;51.440;-2.534;2022-10-31T03:38:59;14.30;;;0.95;;
48987;SDS011;34799;51.440;-2.534;2022-10-31T03:41:31;13.15;;;1.08;;
48987;SDS011;34799;51.440;-2.534;2022-10-31T03:44:06;13.43;;;1.30;;
48987;SDS011;34799;51.440;-2.534;2022-10-31T03:46:38;11.88;;;1.13;;
48987;SDS011;34799;51.440;-2.534;2022-10-31T03:49:05;10.13;;;0.95;;
48987;SDS011;34799;51.440;-2.534;2022-10-31T03:56:39;15.85;;;1.40;;
48987;SDS011;34799;51.440;-2.534;2022-10-31T03:59:15;16.10;;;1.40;;
48987;SDS011;34799;51.440;-2.534;2022-10-31T04:01:47;12.35;;;0.70;;
48987;SDS011;34799;51.440;-2.534;2022-10-31T04:04:16;11.52;;;0.60;;
48987;SDS011;34799;51.440;-2.534;2022-10-31T04:06:44;11.98;;;1.25;;
48987;SDS011;34799;51.440;-2.534;2022-10-31T04:09:13;13.95;;;1.38;;
48987;SDS011;34799;51.440;-2.534;2022-10-31T04:11:45;16.17;;;0.82;;
48987;SDS011;34799;51.440;-2.534;2022-10-31T04:14:31;16.88;;;2.45;;
48987;SDS011;34799;51.440;-2.534;2022-10-31T04:17:00;13.50;;;0.90;;
48987;SDS011;34799;51.440;-2.534;2022-10-31T04:19:35;12.77;;;2.05;;
48987;SDS011;34799;51.440;-2.534;2022-10-31T04:22:02;18.77;;;1.92;;
48987;SDS011;34799;51.440;-2.534;2022-10-31T04:24:30;15.18;;;1.33;;
48987;SDS011;34799;51.440;-2.534;2022-10-31T04:26:58;12.48;;;1.10;;
48987;SDS011;34799;51.440;-2.534;2022-10-31T04:29:27;14.40;;;1.35;;
48987;SDS011;34799;51.440;-2.534;2022-10-31T04:31:55;14.77;;;1.38;;
48987;SDS011;34799;51.440;-2.534;2022-10-31T04:34:22;10.40;;;1.63;;
48987;SDS011;34799;51.440;-2.534;2022-10-31T04:36:51;10.18;;;0.95;;
48987;SDS011;34799;51.440;-2.534;2022-10-31T04:39:18;15.57;;;0.88;;
48987;SDS011;34799;51.440;-2.534;2022-10-31T04:41:57;12.57;;;1.17;;
48987;SDS011;34799;51.440;-2.534;2022-10-31T04:44:27;12.98;;;0.77;;
48987;SDS011;34799;51.440;-2.534;2022-10-31T04:46:58;17.67;;;1.02;;
48987;SDS011;34799;51.440;-2.534;2022-10-31T04:49:27;12.23;;;0.90;;
48987;SDS011;34799;51.440;-2.534;2022-10-31T04:51:55;9.38;;;0.73;;
48987;SDS011;34799;51.440;-2.534;2022-10-31T04:54:23;10.68;;;1.30;;
48987;SDS011;34799;51.440;-2.534;2022-10-31T04:57:05;14.88;;;1.25;;
48987;SDS011;34799;51.440;-2.534;2022-10-31T04:59:33;15.88;;;0.65;;
48987;SDS011;34799;51.440;-2.534;2022-10-31T05:02:04;9.23;;;1.17;;
48987;SDS011;34799;51.440;-2.534;2022-10-31T05:07:30;14.50;;;0.82;;
48987;SDS011;34799;51.440;-2.534;2022-10-31T05:09:58;12.02;;;0.95;;
48987;SDS011;34799;51.440;-2.534;2022-10-31T05:12:26;11.18;;;1.20;;
48987;SDS011;34799;51.440;-2.534;2022-10-31T05:15:05;13.50;;;0.93;;
48987;SDS011;34799;51.440;-2.534;2022-10-31T05:18:01;10.20;;;1.55;;
48987;SDS011;34799;51.440;-2.534;2022-10-31T05:20:29;14.10;;;1.55;;
48987;SDS011;34799;51.440;-2.534;2022-10-31T05:23:06;11.50;;;1.30;;
48987;SDS011;34799;51.440;-2.534;2022-10-31T05:25:33;16.08;;;1.55;;
48987;SDS011;34799;51.440;-2.534;2022-10-31T05:28:03;12.52;;;0.75;;
48987;SDS011;34799;51.440;-2.534;2022-10-31T05:30:31;12.02;;;1.60;;
48987;SDS011;34799;51.440;-2.534;2022-10-31T05:32:59;10.95;;;1.52;;
48987;SDS011;34799;51.440;-2.534;2022-10-31T05:35:46;11.68;;;0.93;;
48987;SDS011;34799;51.440;-2.534;2022-10-31T05:38:30;12.35;;;0.80;;
48987;SDS011;34799;51.440;-2.534;2022-10-31T05:43:35;13.00;;;1.33;;
48987;SDS011;34799;51.440;-2.534;2022-10-31T05:46:06;6.82;;;1.65;;
48987;SDS011;34799;51.440;-2.534;2022-10-31T05:49:00;13.05;;;1.90;;
48987;SDS011;34799;51.440;-2.534;2022-10-31T05:51:47;12.85;;;1.35;;
48987;SDS011;34799;51.440;-2.534;2022-10-31T05:54:14;11.77;;;1.08;;
48987;SDS011;34799;51.440;-2.534;2022-10-31T05:56:44;15.07;;;1.20;;
48987;SDS011;34799;51.440;-2.534;2022-10-31T05:59:12;8.15;;;0.70;;
48987;SDS011;34799;51.440;-2.534;2022-10-31T06:01:39;18.30;;;1.23;;
48987;SDS011;34799;51.440;-2.534;2022-10-31T06:04:22;14.90;;;1.45;;
48987;SDS011;34799;51.440;-2.534;2022-10-31T06:06:49;11.15;;;0.73;;
48987;SDS011;34799;51.440;-2.534;2022-10-31T06:09:17;14.43;;;1.38;;
48987;SDS011;34799;51.440;-2.534;2022-10-31T06:11:46;15.90;;;1.25;;
48987;SDS011;34799;51.440;-2.534;2022-10-31T06:14:22;15.00;;;1.13;;
48987;SDS011;34799;51.440;-2.534;2022-10-31T06:16:56;9.10;;;1.08;;
48987;SDS011;34799;51.440;-2.534;2022-10-31T06:19:47;15.02;;;1.33;;
48987;SDS011;34799;51.440;-2.534;2022-10-31T06:22:19;10.75;;;0.95;;
48987;SDS011;34799;51.440;-2.534;2022-10-31T06:24:47;6.43;;;1.10;;
48987;SDS011;34799;51.440;-2.534;2022-10-31T06:27:27;10.40;;;0.95;;
48987;SDS011;34799;51.440;-2.534;2022-10-31T06:29:56;10.82;;;0.80;;
48987;SDS011;34799;51.440;-2.534;2022-10-31T06:32:29;13.63;;;1.83;;
48987;SDS011;34799;51.440;-2.534;2022-10-31T06:34:57;10.98;;;1.20;;
48987;SDS011;34799;51.440;-2.534;2022-10-31T06:37:26;10.15;;;1.05;;
48987;SDS011;34799;51.440;-2.534;2022-10-31T06:40:01;13.93;;;1.10;;
48987;SDS011;34799;51.440;-2.534;2022-10-31T06:42:33;15.35;;;1.35;;
48987;SDS011;34799;51.440;-2.534;2022-10-31T06:45:03;14.57;;;1.98;;
48987;SDS011;34799;51.440;-2.534;2022-10-31T06:48:08;17.45;;;1.23;;
48987;SDS011;34799;51.440;-2.534;2022-10-31T06:51:01;8.73;;;1.30;;
48987;SDS011;34799;51.440;-2.534;2022-10-31T06:53:29;11.30;;;1.02;;
48987;SDS011;34799;51.440;-2.534;2022-10-31T06:55:58;12.60;;;1.42;;
48987;SDS011;34799;51.440;-2.534;2022-10-31T06:58:25;19.60;;;1.63;;
48987;SDS011;34799;51.440;-2.534;2022-10-31T07:00:59;11.20;;;1.17;;
48987;SDS011;34799;51.440;-2.534;2022-10-31T07:03:27;9.00;;;1.55;;
48987;SDS011;34799;51.440;-2.534;2022-10-31T07:05:55;16.83;;;1.88;;
48987;SDS011;34799;51.440;-2.534;2022-10-31T07:08:25;11.85;;;1.35;;
48987;SDS011;34799;51.440;-2.534;2022-10-31T07:10:53;14.93;;;1.40;;
48987;SDS011;34799;51.440;-2.534;2022-10-31T07:13:23;9.30;;;1.70;;
48987;SDS011;34799;51.440;-2.534;2022-10-31T07:16:03;18.30;;;1.20;;
48987;SDS011;34799;51.440;-2.534;2022-10-31T07:18:33;10.73;;;1.38;;
48987;SDS011;34799;51.440;-2.534;2022-10-31T07:21:01;13.23;;;1.42;;
48987;SDS011;34799;51.440;-2.534;2022-10-31T07:23:29;13.82;;;2.97;;
48987;SDS011;34799;51.440;-2.534;2022-10-31T07:26:17;10.32;;;1.58;;
48987;SDS011;34799;51.440;-2.534;2022-10-31T07:28:47;12.43;;;1.23;;
48987;SDS011;34799;51.440;-2.534;2022-10-31T07:31:17;13.15;;;1.52;;
48987;SDS011;34799;51.440;-2.534;2022-10-31T07:33:46;11.27;;;1.85;;
48987;SDS011;34799;51.440;-2.534;2022-10-31T07:36:26;12.43;;;1.05;;
48987;SDS011;34799;51.440;-2.534;2022-10-31T07:38:58;18.60;;;1.77;;
48987;SDS011;34799;51.440;-2.534;2022-10-31T07:41:25;15.20;;;2.08;;
48987;SDS011;34799;51.440;-2.534;2022-10-31T07:43:53;12.50;;;1.23;;
48987;SDS011;34799;51.440;-2.534;2022-10-31T07:46:40;17.52;;;1.92;;
48987;SDS011;34799;51.440;-2.534;2022-10-31T07:49:35;13.15;;;1.55;;
48987;SDS011;34799;51.440;-2.534;2022-10-31T07:52:21;16.42;;;1.00;;
48987;SDS011;34799;51.440;-2.534;2022-10-31T07:55:27;11.75;;;0.98;;
48987;SDS011;34799;51.440;-2.534;2022-10-31T07:57:58;16.35;;;2.05;;
48987;SDS011;34799;51.440;-2.534;2022-10-31T08:00:27;12.38;;;1.75;;
48987;SDS011;34799;51.440;-2.534;2022-10-31T08:03:00;12.00;;;1.20;;
48987;SDS011;34799;51.440;-2.534;2022-10-31T08:05:46;19.00;;;1.48;;
48987;SDS011;34799;51.440;-2.534;2022-10-31T08:08:30;15.68;;;1.55;;
48987;SDS011;34799;51.440;-2.534;2022-10-31T08:11:00;11.35;;;0.60;;
48987;SDS011;34799;51.440;-2.534;2022-10-31T08:13:29;13.07;;;0.90;;
48987;SDS011;34799;51.440;-2.534;2022-10-31T08:15:57;6.85;;;1.02;;
48987;SDS011;34799;51.440;-2.534;2022-10-31T08:18:34;17.98;;;1.48;;
48987;SDS011;34799;51.440;-2.534;2022-10-31T08:21:06;8.13;;;1.08;;
48987;SDS011;34799;51.440;-2.534;2022-10-31T08:23:35;8.27;;;0.60;;
48987;SDS011;34799;51.440;-2.534;2022-10-31T08:26:03;22.63;;;1.70;;
48987;SDS011;34799;51.440;-2.534;2022-10-31T08:28:32;12.07;;;1.35;;
48987;SDS011;34799;51.440;-2.534;2022-10-31T08:31:00;9.70;;;0.57;;
48987;SDS011;34799;51.440;-2.534;2022-10-31T08:33:40;8.85;;;0.95;;
48987;SDS011;34799;51.440;-2.534;2022-10-31T08:36:07;14.95;;;1.80;;
48987;SDS011;34799;51.440;-2.534;2022-10-31T08:38:48;9.85;;;0.90;;
48987;SDS011;34799;51.440;-2.534;2022-10-31T08:41:16;10.10;;;0.77;;
48987;SDS011;34799;51.440;-2.534;2022-10-31T08:43:44;19.23;;;1.05;;
48987;SDS011;34799;51.440;-2.534;2022-10-31T08:46:14;12.70;;;1.55;;
48987;SDS011;34799;51.440;-2.534;2022-10-31T08:48:43;8.88;;;1.25;;
48987;SDS011;34799;51.440;-2.534;2022-10-31T08:51:11;6.57;;;0.60;;
48987;SDS011;34799;51.440;-2.534;2022-10-31T08:53:39;14.02;;;0.98;;
48987;SDS011;34799;51.440;-2.534;2022-10-31T08:56:33;10.27;;;1.50;;
48987;SDS011;34799;51.440;-2.534;2022-10-31T08:59:04;12.20;;;0.90;;
48987;SDS011;34799;51.440;-2.534;2022-10-31T09:01:47;8.38;;;1.08;;
48987;SDS011;34799;51.440;-2.534;2022-10-31T09:04:17;16.98;;;3.00;;
48987;SDS011;34799;51.440;-2.534;2022-10-31T09:06:44;11.30;;;1.20;;
48987;SDS011;34799;51.440;-2.534;2022-10-31T09:09:21;9.60;;;0.90;;
48987;SDS011;34799;51.440;-2.534;2022-10-31T09:11:49;13.23;;;1.15;;
48987;SDS011;34799;51.440;-2.534;2022-10-31T09:14:16;9.13;;;1.02;;
48987;SDS011;34799;51.440;-2.534;2022-10-31T09:17:17;10.85;;;0.90;;
48987;SDS011;34799;51.440;-2.534;2022-10-31T09:20:04;12.90;;;0.88;;
48987;SDS011;34799;51.440;-2.534;2022-10-31T09:22:34;9.50;;;1.98;;
48987;SDS011;34799;51.440;-2.534;2022-10-31T09:25:01;19.17;;;1.65;;
48987;SDS011;34799;51.440;-2.534;2022-10-31T09:27:28;15.40;;;1.92;;
48987;SDS011;34799;51.440;-2.534;2022-10-31T09:29:57;9.95;;;0.75;;
48987;SDS011;34799;51.440;-2.534;2022-10-31T09:32:25;12.43;;;1.98;;
48987;SDS011;34799;51.440;-2.534;2022-10-31T09:34:52;9.85;;;1.15;;
48987;SDS011;34799;51.440;-2.534;2022-10-31T09:37:20;8.05;;;1.00;;
48987;SDS011;34799;51.440;-2.534;2022-10-31T09:39:49;7.93;;;0.70;;
48987;SDS011;34799;51.440;-2.534;2022-10-31T09:45:21;13.30;;;2.67;;
48987;SDS011;34799;51.440;-2.534;2022-10-31T09:47:56;10.20;;;0.88;;
48987;SDS011;34799;51.440;-2.534;2022-10-31T09:51:17;8.90;;;0.70;;
48987;SDS011;34799;51.440;-2.534;2022-10-31T09:56:33;13.27;;;1.55;;
48987;SDS011;34799;51.440;-2.534;2022-10-31T09:59:02;13.57;;;1.05;;
48987;SDS011;34799;51.440;-2.534;2022-10-31T10:04:30;16.55;;;1.67;;
48987;SDS011;34799;51.440;-2.534;2022-10-31T10:07:22;11.85;;;1.52;;
48987;SDS011;34799;51.440;-2.534;2022-10-31T10:10:43;8.02;;;0.60;;
48987;SDS011;34799;51.440;-2.534;2022-10-31T10:13:51;8.80;;;1.25;;
48987;SDS011;34799;51.440;-2.534;2022-10-31T10:16:31;10.88;;;1.30;;
48987;SDS011;34799;51.440;-2.534;2022-10-31T10:22:00;13.55;;;1.77;;
48987;SDS011;34799;51.440;-2.534;2022-10-31T10:24:46;6.85;;;0.60;;
48987;SDS011;34799;51.440;-2.534;2022-10-31T10:30:16;8.60;;;1.15;;
48987;SDS011;34799;51.440;-2.534;2022-10-31T10:32:54;13.15;;;0.65;;
48987;SDS011;34799;51.440;-2.534;2022-10-31T10:40:55;10.18;;;1.08;;
48987;SDS011;34799;51.440;-2.534;2022-10-31T10:43:36;7.22;;;1.15;;
48987;SDS011;34799;51.440;-2.534;2022-10-31T10:51:27;13.88;;;0.88;;
48987;SDS011;34799;51.440;-2.534;2022-10-31T10:57:04;10.68;;;0.85;;
48987;SDS011;34799;51.440;-2.534;2022-10-31T10:59:34;10.75;;;1.15;;
48987;SDS011;34799;51.440;-2.534;2022-10-31T11:02:02;9.13;;;0.55;;
48987;SDS011;34799;51.440;-2.534;2022-10-31T11:04:31;6.05;;;0.60;;
48987;SDS011;34799;51.440;-2.534;2022-10-31T11:07:05;7.75;;;0.50;;
48987;SDS011;34799;51.440;-2.534;2022-10-31T11:09:36;5.43;;;0.60;;
48987;SDS011;34799;51.440;-2.534;2022-10-31T11:12:10;7.70;;;0.73;;
48987;SDS011;34799;51.440;-2.534;2022-10-31T11:14:58;7.22;;;0.45;;
48987;SDS011;34799;51.440;-2.534;2022-10-31T11:17:34;5.88;;;1.17;;
48987;SDS011;34799;51.440;-2.534;2022-10-31T11:22:31;6.38;;;0.60;;
48987;SDS011;34799;51.440;-2.534;2022-10-31T11:24:59;8.00;;;0.68;;
48987;SDS011;34799;51.440;-2.534;2022-10-31T11:27:26;7.00;;;0.60;;
48987;SDS011;34799;51.440;-2.534;2022-10-31T11:30:03;6.97;;;0.80;;
48987;SDS011;34799;51.440;-2.534;2022-10-31T11:34:59;11.50;;;0.70;;
48987;SDS011;34799;51.440;-2.534;2022-10-31T11:37:28;5.03;;;0.50;;
48987;SDS011;34799;51.440;-2.534;2022-10-31T11:40:03;9.65;;;1.77;;
48987;SDS011;34799;51.440;-2.534;2022-10-31T11:42:39;7.20;;;0.57;;
48987;SDS011;34799;51.440;-2.534;2022-10-31T11:45:15;8.30;;;0.60;;
48987;SDS011;34799;51.440;-2.534;2022-10-31T11:47:43;5.05;;;0.93;;
48987;SDS011;34799;51.440;-2.534;2022-10-31T11:50:24;9.68;;;0.70;;
48987;SDS011;34799;51.440;-2.534;2022-10-31T11:52:52;5.35;;;0.63;;
48987;SDS011;34799;51.440;-2.534;2022-10-31T11:58:01;6.75;;;1.13;;
48987;SDS011;34799;51.440;-2.534;2022-10-31T12:00:33;6.50;;;0.82;;
48987;SDS011;34799;51.440;-2.534;2022-10-31T12:03:12;11.60;;;0.60;;
48987;SDS011;34799;51.440;-2.534;2022-10-31T12:06:13;6.95;;;0.40;;
48987;SDS011;34799;51.440;-2.534;2022-10-31T12:08:44;4.65;;;0.65;;
48987;SDS011;34799;51.440;-2.534;2022-10-31T12:11:21;6.57;;;0.68;;
48987;SDS011;34799;51.440;-2.534;2022-10-31T12:14:26;6.75;;;0.45;;
48987;SDS011;34799;51.440;-2.534;2022-10-31T12:17:04;5.88;;;0.90;;
48987;SDS011;34799;51.440;-2.534;2022-10-31T12:23:13;5.45;;;0.52;;
48987;SDS011;34799;51.440;-2.534;2022-10-31T12:31:41;4.10;;;0.50;;
48987;SDS011;34799;51.440;-2.534;2022-10-31T12:36:54;11.95;;;0.75;;
48987;SDS011;34799;51.440;-2.534;2022-10-31T12:45:53;4.57;;;0.50;;
48987;SDS011;34799;51.440;-2.534;2022-10-31T12:58:47;6.43;;;0.55;;
48987;SDS011;34799;51.440;-2.534;2022-10-31T13:03:58;7.55;;;0.95;;
48987;SDS011;34799;51.440;-2.534;2022-10-31T13:06:33;3.60;;;0.45;;
48987;SDS011;34799;51.440;-2.534;2022-10-31T13:09:10;4.05;;;0.52;;
48987;SDS011;34799;51.440;-2.534;2022-10-31T13:16:53;10.60;;;0.40;;
48987;SDS011;34799;51.440;-2.534;2022-10-31T13:19:24;4.18;;;0.38;;
48987;SDS011;34799;51.440;-2.534;2022-10-31T13:24:38;2.72;;;0.70;;
48987;SDS011;34799;51.440;-2.534;2022-10-31T13:27:14;4.53;;;0.50;;
48987;SDS011;34799;51.440;-2.534;2022-10-31T13:29:46;3.97;;;0.47;;
48987;SDS011;34799;51.440;-2.534;2022-10-31T13:32:15;4.63;;;0.30;;
48987;SDS011;34799;51.440;-2.534;2022-10-31T13:34:50;4.70;;;0.30;;
48987;SDS011;34799;51.440;-2.534;2022-10-31T13:40:12;7.68;;;0.88;;
48987;SDS011;34799;51.440;-2.534;2022-10-31T13:42:53;2.72;;;0.30;;
48987;SDS011;34799;51.440;-2.534;2022-10-31T13:45:24;5.75;;;0.50;;
48987;SDS011;34799;51.440;-2.534;2022-10-31T13:47:59;4.25;;;0.60;;
48987;SDS011;34799;51.440;-2.534;2022-10-31T13:50:31;8.00;;;0.60;;
48987;SDS011;34799;51.440;-2.534;2022-10-31T13:53:42;2.10;;;0.20;;
48987;SDS011;34799;51.440;-2.534;2022-10-31T13:58:36;4.22;;;0.68;;
48987;SDS011;34799;51.440;-2.534;2022-10-31T14:03:39;6.65;;;0.70;;
48987;SDS011;34799;51.440;-2.534;2022-10-31T14:06:44;3.53;;;0.38;;
48987;SDS011;34799;51.440;-2.534;2022-10-31T14:09:33;4.32;;;0.40;;
48987;SDS011;34799;51.440;-2.534;2022-10-31T14:12:14;4.75;;;0.50;;
48987;SDS011;34799;51.440;-2.534;2022-10-31T14:14:55;5.35;;;0.30;;
48987;SDS011;34799;51.440;-2.534;2022-10-31T14:17:35;5.40;;;0.20;;
48987;SDS011;34799;51.440;-2.534;2022-10-31T14:22:39;5.07;;;0.68;;
48987;SDS011;34799;51.440;-2.534;2022-10-31T14:27:59;5.18;;;0.75;;
48987;SDS011;34799;51.440;-2.534;2022-10-31T14:30:29;2.72;;;0.40;;
48987;SDS011;34799;51.440;-2.534;2022-10-31T14:32:58;5.40;;;1.30;;
48987;SDS011;34799;51.440;-2.534;2022-10-31T14:35:46;9.07;;;2.65;;
48987;SDS011;34799;51.440;-2.534;2022-10-31T14:38:21;7.90;;;0.90;;
48987;SDS011;34799;51.440;-2.534;2022-10-31T14:51:44;7.93;;;2.78;;
48987;SDS011;34799;51.440;-2.534;2022-10-31T14:54:28;12.60;;;2.45;;
48987;SDS011;34799;51.440;-2.534;2022-10-31T14:57:07;8.48;;;1.30;;
48987;SDS011;34799;51.440;-2.534;2022-10-31T14:59:42;16.88;;;4.78;;
48987;SDS011;34799;51.440;-2.534;2022-10-31T15:02:17;15.48;;;4.20;;
48987;SDS011;34799;51.440;-2.534;2022-10-31T15:05:08;11.55;;;3.08;;
48987;SDS011;34799;51.440;-2.534;2022-10-31T15:07:47;7.45;;;2.60;;
48987;SDS011;34799;51.440;-2.534;2022-10-31T15:10:23;5.72;;;2.28;;
48987;SDS011;34799;51.440;-2.534;2022-10-31T15:12:52;8.60;;;1.42;;
48987;SDS011;34799;51.440;-2.534;2022-10-31T15:15:21;2.70;;;0.52;;
48987;SDS011;34799;51.440;-2.534;2022-10-31T15:17:54;6.07;;;0.60;;
48987;SDS011;34799;51.440;-2.534;2022-10-31T15:20:26;4.35;;;0.50;;
48987;SDS011;34799;51.440;-2.534;2022-10-31T15:22:56;6.03;;;0.68;;
48987;SDS011;34799;51.440;-2.534;2022-10-31T15:25:25;7.88;;;0.40;;
48987;SDS011;34799;51.440;-2.534;2022-10-31T15:27:53;3.65;;;0.30;;
48987;SDS011;34799;51.440;-2.534;2022-10-31T15:30:22;4.75;;;0.43;;
48987;SDS011;34799;51.440;-2.534;2022-10-31T15:32:51;2.25;;;0.60;;
48987;SDS011;34799;51.440;-2.534;2022-10-31T15:35:25;4.50;;;0.65;;
48987;SDS011;34799;51.440;-2.534;2022-10-31T15:37:54;2.35;;;0.50;;
48987;SDS011;34799;51.440;-2.534;2022-10-31T15:40:25;3.28;;;0.55;;
48987;SDS011;34799;51.440;-2.534;2022-10-31T15:42:57;4.03;;;0.50;;
48987;SDS011;34799;51.440;-2.534;2022-10-31T15:45:29;4.97;;;0.60;;
48987;SDS011;34799;51.440;-2.534;2022-10-31T15:48:00;2.78;;;0.50;;
48987;SDS011;34799;51.440;-2.534;2022-10-31T15:50:35;4.40;;;0.95;;
48987;SDS011;34799;51.440;-2.534;2022-10-31T15:53:14;5.45;;;0.50;;
48987;SDS011;34799;51.440;-2.534;2022-10-31T15:55:50;4.53;;;0.77;;
48987;SDS011;34799;51.440;-2.534;2022-10-31T15:58:21;4.32;;;0.55;;
48987;SDS011;34799;51.440;-2.534;2022-10-31T16:01:04;4.70;;;0.77;;
48987;SDS011;34799;51.440;-2.534;2022-10-31T16:03:33;3.33;;;0.60;;
48987;SDS011;34799;51.440;-2.534;2022-10-31T16:06:02;4.53;;;0.82;;
48987;SDS011;34799;51.440;-2.534;2022-10-31T16:08:35;4.65;;;0.90;;
48987;SDS011;34799;51.440;-2.534;2022-10-31T16:13:42;6.88;;;1.10;;
48987;SDS011;34799;51.440;-2.534;2022-10-31T16:16:29;10.32;;;1.13;;
48987;SDS011;34799;51.440;-2.534;2022-10-31T16:19:01;3.05;;;0.60;;
48987;SDS011;34799;51.440;-2.534;2022-10-31T16:21:31;5.10;;;0.60;;
48987;SDS011;34799;51.440;-2.534;2022-10-31T16:24:02;4.40;;;0.40;;
48987;SDS011;34799;51.440;-2.534;2022-10-31T16:26:31;5.22;;;0.55;;
48987;SDS011;34799;51.440;-2.534;2022-10-31T16:28:59;8.68;;;0.88;;
48987;SDS011;34799;51.440;-2.534;2022-10-31T16:31:36;5.47;;;0.80;;
48987;SDS011;34799;51.440;-2.534;2022-10-31T16:36:33;6.75;;;0.73;;
48987;SDS011;34799;51.440;-2.534;2022-10-31T16:39:06;4.20;;;0.57;;
48987;SDS011;34799;51.440;-2.534;2022-10-31T16:41:34;7.20;;;0.50;;
48987;SDS011;34799;51.440;-2.534;2022-10-31T16:44:14;9.85;;;0.73;;
48987;SDS011;34799;51.440;-2.534;2022-10-31T16:46:42;3.08;;;0.70;;
48987;SDS011;34799;51.440;-2.534;2022-10-31T16:49:10;7.95;;;0.73;;
48987;SDS011;34799;51.440;-2.534;2022-10-31T16:51:38;5.80;;;1.27;;
48987;SDS011;34799;51.440;-2.534;2022-10-31T16:54:05;4.95;;;0.70;;
48987;SDS011;34799;51.440;-2.534;2022-10-31T16:56:36;2.72;;;0.43;;
48987;SDS011;34799;51.440;-2.534;2022-10-31T16:59:06;2.55;;;0.40;;
48987;SDS011;34799;51.440;-2.534;2022-10-31T17:01:37;2.13;;;0.55;;
48987;SDS011;34799;51.440;-2.534;2022-10-31T17:04:07;3.55;;;0.60;;
48987;SDS011;34799;51.440;-2.534;2022-10-31T17:06:38;3.42;;;0.43;;
48987;SDS011;34799;51.440;-2.534;2022-10-31T17:09:06;4.15;;;0.60;;
48987;SDS011;34799;51.440;-2.534;2022-10-31T17:11:35;4.35;;;0.50;;
48987;SDS011;34799;51.440;-2.534;2022-10-31T17:14:03;5.72;;;0.60;;
48987;SDS011;34799;51.440;-2.534;2022-10-31T17:16:30;3.00;;;0.52;;
48987;SDS011;34799;51.440;-2.534;2022-10-31T17:18:58;5.05;;;0.40;;
48987;SDS011;34799;51.440;-2.534;2022-10-31T17:21:27;3.38;;;0.50;;